Time;durP1;ratioP1;P1;durP2;ratioP2;P2;SDS_P1;SDS_P2;PMS_P1;PMS_P2;Temp;Humidity;BMP_temperature;BMP_pressure;BME280_temperature;BME280_humidity;BME280_pressure;Samples;Min_cycle;Max_cycle;Signal;HPM_P1;HPM_P2
2022/09/14 00:01:19;;;;;;;0.00;0.00;;;14.60;99.90;;;;;;5025124;28;20111;-80
2022/09/14 00:03:54;;;;;;;0.00;0.00;;;14.60;99.90;;;;;;5016618;28;20060;-81
2022/09/14 00:06:22;;;;;;;0.00;0.00;;;14.60;99.90;;;;;;5039853;28;20412;-81
2022/09/14 00:08:51;;;;;;;0.00;0.00;;;14.50;99.90;;;;;;5022750;28;20481;-82
2022/09/14 00:11:19;;;;;;;0.00;0.00;;;14.60;99.90;;;;;;5016671;28;20528;-79
2022/09/14 00:13:47;;;;;;;0.00;0.00;;;14.60;99.90;;;;;;5034061;28;20037;-81
2022/09/14 00:16:16;;;;;;;0.00;0.00;;;14.60;99.90;;;;;;5027169;28;20124;-81
2022/09/14 00:18:44;;;;;;;0.00;0.00;;;14.50;99.90;;;;;;5031479;28;20103;-81
2022/09/14 00:21:11;;;;;;;0.00;0.00;;;14.50;99.90;;;;;;5016937;28;20148;-80
2022/09/14 00:23:41;;;;;;;0.00;0.00;;;14.40;99.90;;;;;;5021779;28;20045;-80
2022/09/14 00:26:10;;;;;;;0.00;0.00;;;14.40;99.90;;;;;;5030832;28;20056;-82
2022/09/14 00:28:37;;;;;;;0.00;0.00;;;14.40;99.90;;;;;;5017571;28;20057;-80
2022/09/14 00:31:05;;;;;;;0.00;0.00;;;14.20;99.90;;;;;;5029442;28;20557;-81
2022/09/14 00:33:33;;;;;;;0.00;0.00;;;14.10;99.90;;;;;;5033961;28;20432;-80
2022/09/14 00:36:07;;;;;;;0.00;0.00;;;14.10;99.90;;;;;;5033047;28;20048;-81
2022/09/14 00:38:34;;;;;;;0.00;0.00;;;14.20;99.90;;;;;;5012891;28;20429;-81
2022/09/14 00:41:05;;;;;;;0.00;0.00;;;14.20;99.90;;;;;;5019328;28;20124;-80
2022/09/14 00:43:33;;;;;;;0.00;0.00;;;14.20;99.90;;;;;;5015730;28;20125;-82
2022/09/14 00:46:01;;;;;;;0.00;0.00;;;14.10;99.90;;;;;;5030988;28;20411;-80
2022/09/14 00:48:29;;;;;;;0.00;0.00;;;14.20;99.90;;;;;;5021034;28;20073;-80
2022/09/14 00:50:56;;;;;;;0.00;0.00;;;14.20;99.90;;;;;;5019723;28;20041;-81
2022/09/14 00:53:23;;;;;;;0.00;0.00;;;14.20;99.90;;;;;;5019740;28;20128;-81
2022/09/14 00:55:53;;;;;;;0.00;0.00;;;14.10;99.90;;;;;;5020246;28;20052;-81
2022/09/14 00:58:21;;;;;;;0.00;0.00;;;14.10;99.90;;;;;;5016580;28;20302;-82
2022/09/14 01:00:48;;;;;;;0.00;0.00;;;14.10;99.90;;;;;;5028107;28;20049;-81
2022/09/14 01:03:15;;;;;;;0.00;0.00;;;14.10;99.90;;;;;;5020446;28;20413;-82
2022/09/14 01:05:57;;;;;;;0.00;0.00;;;14.20;99.90;;;;;;5021006;28;20059;-81
2022/09/14 01:08:40;;;;;;;0.00;0.00;;;14.20;99.90;;;;;;5020298;28;20032;-81
2022/09/14 01:11:21;;;;;;;0.00;0.00;;;14.20;99.90;;;;;;5020702;28;20132;-81
2022/09/14 01:13:57;;;;;;;0.00;0.00;;;14.10;99.90;;;;;;5032368;28;20163;-80
2022/09/14 01:16:33;;;;;;;0.00;0.00;;;14.00;99.90;;;;;;5016881;28;20061;-80
2022/09/14 01:19:04;;;;;;;0.00;0.00;;;14.00;99.90;;;;;;5017888;28;20041;-81
2022/09/14 01:21:33;;;;;;;0.00;0.00;;;13.90;99.90;;;;;;5028155;28;20037;-82
2022/09/14 01:24:05;;;;;;;0.00;0.00;;;13.90;99.90;;;;;;5016498;28;20498;-82
2022/09/14 01:26:57;;;;;;;0.00;0.00;;;14.00;99.90;;;;;;5019788;28;20112;-83
2022/09/14 01:29:32;;;;;;;0.00;0.00;;;14.00;99.90;;;;;;5012991;28;20041;-80
2022/09/14 01:32:05;;;;;;;0.00;0.00;;;14.00;99.90;;;;;;5019568;28;20897;-82
2022/09/14 01:34:35;;;;;;;0.00;0.00;;;14.00;99.90;;;;;;5038380;28;20041;-82
2022/09/14 01:37:11;;;;;;;0.00;0.00;;;14.00;99.90;;;;;;5036294;28;20051;-80
2022/09/14 01:39:42;;;;;;;0.00;0.00;;;14.00;99.90;;;;;;5032037;28;20482;-82
2022/09/14 01:42:11;;;;;;;0.00;0.00;;;14.00;99.90;;;;;;5016934;28;20037;-80
2022/09/14 01:44:44;;;;;;;0.00;0.00;;;14.00;99.90;;;;;;5037037;28;20041;-81
2022/09/14 01:47:15;;;;;;;0.08;0.08;;;14.00;99.90;;;;;;5025922;28;20512;-80
2022/09/14 01:49:48;;;;;;;0.00;0.00;;;13.90;99.90;;;;;;5042909;28;20105;-84
2022/09/14 01:52:18;;;;;;;0.00;0.00;;;13.90;99.90;;;;;;5028875;28;20080;-82
2022/09/14 01:54:49;;;;;;;0.00;0.00;;;13.90;99.90;;;;;;5042167;28;20046;-81
2022/09/14 01:57:22;;;;;;;0.00;0.00;;;13.90;99.90;;;;;;5033602;28;20041;-82
2022/09/14 01:59:52;;;;;;;0.00;0.00;;;13.80;99.90;;;;;;5054568;22;20104;-81
2022/09/14 02:02:24;;;;;;;0.00;0.00;;;13.80;99.90;;;;;;5072083;28;20095;-80
2022/09/14 02:04:57;;;;;;;0.00;0.00;;;13.80;99.90;;;;;;5065257;28;20441;-80
2022/09/14 02:07:25;;;;;;;0.00;0.00;;;13.90;99.90;;;;;;5070440;28;20036;-79
2022/09/14 02:09:54;;;;;;;0.00;0.00;;;13.90;99.90;;;;;;5065531;28;20045;-82
2022/09/14 02:12:21;;;;;;;0.00;0.00;;;13.90;99.90;;;;;;5065830;28;20048;-81
2022/09/14 02:14:52;;;;;;;0.00;0.00;;;13.90;99.90;;;;;;5061846;28;20416;-82
2022/09/14 02:17:20;;;;;;;0.00;0.00;;;13.90;99.90;;;;;;5063313;28;20039;-82
2022/09/14 02:19:51;;;;;;;0.00;0.00;;;13.90;99.90;;;;;;5064626;28;20505;-82
2022/09/14 02:22:18;;;;;;;0.00;0.00;;;13.80;99.90;;;;;;5060248;28;20072;-81
2022/09/14 02:24:46;;;;;;;0.00;0.00;;;13.80;99.90;;;;;;5060743;28;20041;-80
2022/09/14 02:27:13;;;;;;;0.00;0.00;;;13.70;99.90;;;;;;5061393;28;20063;-81
2022/09/14 02:29:40;;;;;;;0.00;0.00;;;13.70;99.90;;;;;;5057126;28;20055;-81
2022/09/14 02:32:19;;;;;;;0.00;0.00;;;13.70;99.90;;;;;;5062775;28;20508;-80
2022/09/14 02:34:56;;;;;;;0.00;0.00;;;13.70;99.90;;;;;;5065512;28;20427;-81
2022/09/14 02:37:32;;;;;;;0.00;0.00;;;13.70;99.90;;;;;;5059207;28;20041;-82
2022/09/14 02:40:09;;;;;;;0.00;0.00;;;13.70;99.90;;;;;;5059977;28;20487;-81
2022/09/14 02:42:46;;;;;;;0.00;0.00;;;13.70;99.90;;;;;;5068620;28;20051;-79
2022/09/14 02:45:21;;;;;;;0.00;0.00;;;13.70;99.90;;;;;;5059583;28;20044;-81
2022/09/14 02:47:56;;;;;;;0.00;0.00;;;13.70;99.90;;;;;;5075379;28;20041;-82
2022/09/14 02:50:28;;;;;;;0.00;0.00;;;13.60;99.90;;;;;;5061073;28;20496;-81
2022/09/14 02:53:02;;;;;;;0.00;0.00;;;13.60;99.90;;;;;;5065874;28;20771;-81
2022/09/14 02:55:33;;;;;;;0.00;0.00;;;13.60;99.90;;;;;;5066393;28;20626;-81
2022/09/14 02:58:02;;;;;;;0.00;0.00;;;13.60;99.90;;;;;;5057265;28;20511;-80
2022/09/14 03:00:30;;;;;;;0.00;0.00;;;13.60;99.90;;;;;;5059193;28;20052;-80
2022/09/14 03:02:58;;;;;;;0.00;0.00;;;13.60;99.90;;;;;;5062382;28;20049;-80
2022/09/14 03:05:25;;;;;;;0.00;0.00;;;13.60;99.90;;;;;;5056754;28;20041;-81
2022/09/14 03:07:52;;;;;;;0.00;0.00;;;13.60;99.90;;;;;;5064898;28;20042;-80
2022/09/14 03:10:19;;;;;;;0.00;0.00;;;13.60;99.90;;;;;;5064166;28;20033;-82
2022/09/14 03:12:46;;;;;;;0.00;0.00;;;13.60;99.90;;;;;;5061077;28;20089;-82
2022/09/14 03:15:12;;;;;;;0.00;0.00;;;13.60;99.90;;;;;;5061911;28;20049;-80
2022/09/14 03:17:44;;;;;;;0.00;0.00;;;13.50;99.90;;;;;;5066073;28;20044;-81
2022/09/14 03:20:13;;;;;;;0.00;0.00;;;13.50;99.90;;;;;;5058946;28;20041;-82
2022/09/14 03:22:39;;;;;;;0.00;0.00;;;13.50;99.90;;;;;;5062462;28;20139;-81
2022/09/14 03:25:07;;;;;;;0.00;0.00;;;13.40;99.90;;;;;;5057687;28;20432;-81
2022/09/14 03:27:33;;;;;;;0.00;0.00;;;13.40;99.90;;;;;;5059882;28;20138;-80
2022/09/14 03:30:00;;;;;;;0.00;0.00;;;13.30;99.90;;;;;;5065536;28;20124;-80
2022/09/14 03:32:27;;;;;;;0.00;0.00;;;13.30;99.90;;;;;;5059191;28;20040;-80
2022/09/14 03:34:54;;;;;;;0.00;0.00;;;13.30;99.90;;;;;;5064520;28;20900;-82
2022/09/14 03:37:22;;;;;;;0.00;0.00;;;13.40;99.90;;;;;;5068358;28;20045;-79
2022/09/14 03:39:49;;;;;;;0.00;0.00;;;13.30;99.90;;;;;;5064689;28;20159;-80
2022/09/14 03:42:16;;;;;;;0.00;0.00;;;13.10;99.90;;;;;;5064022;28;20534;-81
2022/09/14 03:44:43;;;;;;;0.00;0.00;;;13.00;99.90;;;;;;5062865;28;20049;-82
2022/09/14 03:47:09;;;;;;;0.00;0.00;;;13.00;99.90;;;;;;5069671;28;20051;-80
2022/09/14 03:49:36;;;;;;;0.00;0.00;;;13.00;99.90;;;;;;5066082;28;20507;-81
2022/09/14 03:52:03;;;;;;;0.00;0.00;;;13.00;99.90;;;;;;5061098;28;20040;-81
2022/09/14 03:54:31;;;;;;;0.00;0.00;;;12.90;99.90;;;;;;5066713;28;20048;-81
2022/09/14 03:56:58;;;;;;;0.00;0.00;;;12.90;99.90;;;;;;5063748;28;20048;-80
2022/09/14 03:59:25;;;;;;;0.00;0.00;;;12.90;99.90;;;;;;5068737;28;20501;-81
2022/09/14 04:01:52;;;;;;;0.00;0.00;;;12.90;99.90;;;;;;5061691;28;20054;-82
2022/09/14 04:04:18;;;;;;;0.00;0.00;;;12.80;99.90;;;;;;5070092;28;20045;-81
2022/09/14 04:06:46;;;;;;;0.00;0.00;;;12.80;99.90;;;;;;5059912;28;20048;-82
2022/09/14 04:09:13;;;;;;;0.00;0.00;;;12.80;99.90;;;;;;5060931;28;20040;-81
2022/09/14 04:11:41;;;;;;;0.00;0.00;;;12.80;99.90;;;;;;5056398;28;20437;-81
2022/09/14 04:14:07;;;;;;;0.00;0.00;;;12.80;99.90;;;;;;5058577;28;20462;-80
2022/09/14 04:16:34;;;;;;;0.00;0.00;;;12.70;99.90;;;;;;5060337;28;20048;-81
2022/09/14 04:19:01;;;;;;;0.00;0.00;;;12.70;99.90;;;;;;5061047;28;20068;-80
2022/09/14 04:21:28;;;;;;;0.00;0.00;;;12.60;99.90;;;;;;5060182;28;20083;-82
2022/09/14 04:23:56;;;;;;;0.10;0.10;;;12.50;99.90;;;;;;5063414;28;20048;-80
2022/09/14 04:26:42;;;;;;;0.10;0.10;;;12.60;99.90;;;;;;5066412;28;20056;-81
2022/09/14 04:29:10;;;;;;;0.00;0.00;;;12.70;99.90;;;;;;5065829;28;20040;-82
2022/09/14 04:31:37;;;;;;;0.00;0.00;;;12.70;99.90;;;;;;5065245;28;20059;-82
2022/09/14 04:34:04;;;;;;;0.00;0.00;;;12.70;99.90;;;;;;5065064;28;20049;-82
2022/09/14 04:36:31;;;;;;;0.00;0.00;;;12.70;99.90;;;;;;5068292;28;20047;-80
2022/09/14 04:38:59;;;;;;;0.00;0.00;;;12.70;99.90;;;;;;5066859;28;20429;-81
2022/09/14 04:41:27;;;;;;;0.00;0.00;;;12.80;99.90;;;;;;5065127;28;20071;-82
2022/09/14 04:43:56;;;;;;;0.00;0.00;;;12.70;99.90;;;;;;5061988;28;20048;-81
2022/09/14 04:46:24;;;;;;;0.00;0.00;;;12.70;99.90;;;;;;5062936;28;20128;-80
2022/09/14 04:48:52;;;;;;;0.05;0.05;;;12.80;99.90;;;;;;5066900;28;20044;-81
2022/09/14 04:51:21;;;;;;;0.03;0.03;;;12.70;99.90;;;;;;5063817;28;20047;-81
2022/09/14 04:53:49;;;;;;;0.00;0.00;;;12.90;99.90;;;;;;5063373;28;20044;-82
2022/09/14 04:56:18;;;;;;;0.00;0.00;;;12.80;99.90;;;;;;5060702;28;20051;-81
2022/09/14 04:58:46;;;;;;;0.00;0.00;;;12.90;99.90;;;;;;5073055;28;20079;-81
2022/09/14 05:01:20;;;;;;;0.00;0.00;;;12.90;99.90;;;;;;5066406;28;20045;-81
2022/09/14 05:03:48;;;;;;;0.00;0.00;;;12.80;99.90;;;;;;5065832;28;20049;-82
2022/09/14 05:06:17;;;;;;;0.00;0.00;;;12.90;99.90;;;;;;5060082;28;20061;-80
2022/09/14 05:08:45;;;;;;;0.00;0.00;;;12.90;99.90;;;;;;5058694;28;20041;-82
2022/09/14 05:11:14;;;;;;;0.00;0.00;;;12.90;99.90;;;;;;5064980;28;20063;-81
2022/09/14 05:13:41;;;;;;;0.00;0.00;;;12.90;99.90;;;;;;5067283;28;20432;-80
2022/09/14 05:16:16;;;;;;;0.00;0.00;;;12.90;99.90;;;;;;5062864;28;20048;-80
2022/09/14 05:18:45;;;;;;;0.00;0.00;;;12.90;99.90;;;;;;5064899;28;20555;-80
2022/09/14 05:21:15;;;;;;;0.00;0.00;;;13.00;99.90;;;;;;5064457;28;20511;-81
2022/09/14 05:23:42;;;;;;;0.00;0.00;;;13.00;99.90;;;;;;5070323;28;20052;-82
2022/09/14 05:26:10;;;;;;;0.00;0.00;;;13.10;99.90;;;;;;5070732;28;20040;-79
2022/09/14 05:28:37;;;;;;;0.00;0.00;;;13.10;99.90;;;;;;5069994;28;20497;-83
2022/09/14 05:31:05;;;;;;;0.00;0.00;;;13.10;99.90;;;;;;5072113;28;20050;-81
2022/09/14 05:33:33;;;;;;;0.00;0.00;;;13.20;99.90;;;;;;5065006;28;20408;-83
2022/09/14 05:36:02;;;;;;;0.00;0.00;;;13.10;99.90;;;;;;5064965;28;20048;-80
2022/09/14 05:38:29;;;;;;;0.00;0.00;;;13.10;99.90;;;;;;5062149;28;20508;-82
2022/09/14 05:40:56;;;;;;;0.00;0.00;;;13.10;99.90;;;;;;5069862;28;20120;-80
2022/09/14 05:43:24;;;;;;;0.00;0.00;;;13.20;99.90;;;;;;5064835;28;20045;-81
2022/09/14 05:45:50;;;;;;;0.00;0.00;;;13.30;99.90;;;;;;5065052;28;20051;-80
2022/09/14 05:48:17;;;;;;;0.03;0.03;;;13.30;99.90;;;;;;5065759;28;20508;-80
2022/09/14 05:50:44;;;;;;;0.00;0.00;;;13.40;99.90;;;;;;5060841;28;20078;-82
2022/09/14 05:53:12;;;;;;;0.00;0.00;;;13.40;99.90;;;;;;5058855;28;20044;-81
2022/09/14 05:55:39;;;;;;;0.00;0.00;;;13.40;99.90;;;;;;5062944;28;20045;-82
2022/09/14 05:58:06;;;;;;;0.00;0.00;;;13.40;99.90;;;;;;5062387;28;20040;-80
2022/09/14 06:00:33;;;;;;;0.00;0.00;;;13.40;99.90;;;;;;5064205;28;20054;-82
2022/09/14 06:02:59;;;;;;;0.00;0.00;;;13.50;99.90;;;;;;5065569;28;20054;-83
2022/09/14 06:05:27;;;;;;;0.00;0.00;;;13.50;99.90;;;;;;5072634;28;20476;-82
2022/09/14 06:07:53;;;;;;;0.00;0.00;;;13.60;99.90;;;;;;5077843;28;20044;-83
2022/09/14 06:10:22;;;;;;;0.10;0.10;;;13.50;99.90;;;;;;5068685;28;20033;-82
2022/09/14 06:12:49;;;;;;;0.00;0.00;;;13.60;99.90;;;;;;5061573;28;20032;-80
2022/09/14 06:15:23;;;;;;;0.00;0.00;;;13.70;99.90;;;;;;5070561;28;20090;-79
2022/09/14 06:17:50;;;;;;;0.00;0.00;;;13.70;99.90;;;;;;5069097;28;20044;-81
2022/09/14 06:20:17;;;;;;;0.00;0.00;;;13.80;99.90;;;;;;5063194;28;20048;-81
2022/09/14 06:22:44;;;;;;;0.00;0.00;;;13.90;99.90;;;;;;5076386;28;20045;-79
2022/09/14 06:25:11;;;;;;;0.00;0.00;;;13.90;99.90;;;;;;5070322;28;20519;-80
2022/09/14 06:27:39;;;;;;;0.00;0.00;;;14.00;99.90;;;;;;5074611;28;20108;-82
2022/09/14 06:30:07;;;;;;;0.00;0.00;;;14.00;99.90;;;;;;5080637;28;20100;-82
2022/09/14 06:32:34;;;;;;;0.00;0.00;;;14.10;99.90;;;;;;5079280;28;20124;-82
2022/09/14 06:35:02;;;;;;;0.00;0.00;;;14.20;99.90;;;;;;5073186;28;20036;-81
2022/09/14 06:37:29;;;;;;;0.00;0.00;;;14.20;99.90;;;;;;5065428;28;20126;-81
2022/09/14 06:39:56;;;;;;;0.00;0.00;;;14.30;99.90;;;;;;5067379;28;20038;-82
2022/09/14 06:42:22;;;;;;;0.00;0.00;;;14.30;99.90;;;;;;5060524;28;20037;-82
2022/09/14 06:44:50;;;;;;;0.00;0.00;;;14.40;99.90;;;;;;5064750;28;20104;-81
2022/09/14 06:47:17;;;;;;;0.00;0.00;;;14.50;99.90;;;;;;5059395;28;20055;-82
2022/09/14 06:49:44;;;;;;;0.00;0.00;;;14.50;99.90;;;;;;5067378;28;20045;-80
2022/09/14 06:52:11;;;;;;;0.00;0.00;;;14.50;99.90;;;;;;5060547;28;20048;-81
2022/09/14 06:54:37;;;;;;;0.00;0.00;;;14.50;99.90;;;;;;5065706;28;20036;-80
2022/09/14 06:57:05;;;;;;;0.00;0.00;;;14.60;99.90;;;;;;5068997;28;20052;-81
2022/09/14 06:59:31;;;;;;;0.00;0.00;;;14.50;99.90;;;;;;5063451;28;20048;-80
2022/09/14 07:01:59;;;;;;;0.00;0.00;;;14.60;99.90;;;;;;5061698;28;20063;-83
2022/09/14 07:04:26;;;;;;;0.00;0.00;;;14.70;99.90;;;;;;5064013;28;20045;-80
2022/09/14 07:06:53;;;;;;;0.00;0.00;;;14.70;99.90;;;;;;5063394;28;20044;-80
2022/09/14 07:09:20;;;;;;;0.00;0.00;;;14.70;99.90;;;;;;5067713;28;20075;-81
2022/09/14 07:11:48;;;;;;;0.00;0.00;;;14.80;99.90;;;;;;5066860;28;20060;-79
2022/09/14 07:14:15;;;;;;;0.00;0.00;;;14.90;99.90;;;;;;5072233;28;20044;-81
2022/09/14 07:16:42;;;;;;;0.00;0.00;;;14.90;99.90;;;;;;5074626;28;20124;-81
2022/09/14 07:19:12;;;;;;;0.00;0.00;;;15.00;99.90;;;;;;5066133;28;20028;-82
2022/09/14 07:21:39;;;;;;;0.00;0.00;;;15.10;99.90;;;;;;5069808;28;20415;-81
2022/09/14 07:24:06;;;;;;;0.00;0.00;;;15.20;99.90;;;;;;5060970;28;20084;-80
2022/09/14 07:26:41;;;;;;;0.00;0.00;;;15.10;99.90;;;;;;5059692;28;20051;-80
2022/09/14 07:29:11;;;;;;;0.00;0.00;;;15.10;99.90;;;;;;5073393;28;20039;-80
2022/09/14 07:31:40;;;;;;;0.00;0.00;;;15.20;99.90;;;;;;5073340;28;20466;-81
2022/09/14 07:34:08;;;;;;;0.00;0.00;;;15.20;99.90;;;;;;5073216;28;20121;-81
2022/09/14 07:36:37;;;;;;;0.00;0.00;;;15.30;99.90;;;;;;5063449;28;20044;-81
2022/09/14 07:39:07;;;;;;;0.00;0.00;;;15.40;99.90;;;;;;5071144;28;20043;-83
2022/09/14 07:41:34;;;;;;;0.00;0.00;;;15.50;99.90;;;;;;5060975;28;20041;-81
2022/09/14 07:44:05;;;;;;;0.00;0.00;;;15.70;99.90;;;;;;5068080;28;20056;-80
2022/09/14 07:46:37;;;;;;;0.00;0.00;;;16.00;99.90;;;;;;5067532;28;20072;-82
2022/09/14 07:49:06;;;;;;;0.00;0.00;;;16.10;99.90;;;;;;5071964;28;20050;-80
2022/09/14 07:51:35;;;;;;;0.00;0.00;;;16.10;99.90;;;;;;5069969;28;20047;-83
2022/09/14 07:54:04;;;;;;;0.00;0.00;;;16.20;99.90;;;;;;5063616;28;20053;-82
2022/09/14 07:56:33;;;;;;;0.00;0.00;;;17.10;99.90;;;;;;5062305;28;20068;-82
2022/09/14 07:59:01;;;;;;;0.03;0.03;;;16.30;99.90;;;;;;5055530;28;20511;-80
2022/09/14 08:04:17;;;;;;;0.00;0.00;;;16.30;99.90;;;;;;5084094;28;20071;-80
2022/09/14 08:06:44;;;;;;;0.00;0.00;;;16.40;99.90;;;;;;5080580;28;20480;-78
2022/09/14 08:09:13;;;;;;;0.00;0.00;;;16.40;99.90;;;;;;5090403;28;20047;-80
2022/09/14 08:11:39;;;;;;;0.00;0.00;;;16.60;99.90;;;;;;5086957;28;20044;-79
2022/09/14 08:14:11;;;;;;;0.00;0.00;;;16.50;99.90;;;;;;5088201;28;20043;-79
2022/09/14 08:16:39;;;;;;;0.00;0.00;;;16.60;99.90;;;;;;5086643;28;20496;-80
2022/09/14 08:19:10;;;;;;;0.00;0.00;;;16.80;99.90;;;;;;5089338;28;20040;-79
2022/09/14 08:21:38;;;;;;;0.00;0.00;;;17.00;99.90;;;;;;5083380;28;20051;-79
2022/09/14 08:24:14;;;;;;;0.00;0.00;;;17.10;99.90;;;;;;5079727;28;20065;-80
2022/09/14 08:26:41;;;;;;;0.00;0.00;;;17.10;99.90;;;;;;5087970;28;20041;-79
2022/09/14 08:29:08;;;;;;;0.00;0.00;;;17.30;99.90;;;;;;5093768;28;20040;-80
2022/09/14 08:31:37;;;;;;;0.10;0.10;;;17.10;99.90;;;;;;5080524;28;20047;-79
2022/09/14 08:34:05;;;;;;;0.00;0.00;;;16.90;99.90;;;;;;5086643;28;20099;-78
2022/09/14 08:36:34;;;;;;;0.00;0.00;;;16.90;99.90;;;;;;5086347;28;20141;-80
2022/09/14 08:39:02;;;;;;;0.00;0.00;;;17.10;99.90;;;;;;5076403;28;20044;-79
2022/09/14 08:41:34;;;;;;;0.00;0.00;;;17.30;99.90;;;;;;5081212;28;20036;-79
2022/09/14 08:44:05;;;;;;;0.00;0.00;;;17.40;99.90;;;;;;5074841;28;20050;-80
2022/09/14 08:46:37;;;;;;;0.00;0.00;;;17.40;99.90;;;;;;5085258;28;20040;-79
2022/09/14 08:49:17;;;;;;;0.00;0.00;;;17.20;99.90;;;;;;5083198;28;20028;-78
2022/09/14 08:51:44;;;;;;;0.00;0.00;;;17.40;99.90;;;;;;5091286;28;20446;-80
2022/09/14 08:54:11;;;;;;;0.00;0.00;;;17.40;99.90;;;;;;5079069;28;20052;-79
2022/09/14 08:56:43;;;;;;;0.00;0.00;;;17.40;99.90;;;;;;5083711;28;20041;-79
2022/09/14 08:59:28;;;;;;;0.00;0.00;;;17.40;99.90;;;;;;5085757;28;20118;-79
2022/09/14 09:02:07;;;;;;;0.00;0.00;;;17.00;99.90;;;;;;5081857;28;20055;-78
2022/09/14 09:04:50;;;;;;;0.10;0.10;;;17.20;99.90;;;;;;5093345;28;20040;-77
2022/09/14 09:07:25;;;;;;;0.00;0.00;;;17.30;99.90;;;;;;5086184;28;20047;-78
2022/09/14 09:09:55;;;;;;;0.03;0.03;;;17.60;99.90;;;;;;5093524;28;20046;-80
2022/09/14 09:12:28;;;;;;;0.00;0.00;;;17.50;99.90;;;;;;5082296;28;20046;-80
2022/09/14 09:14:58;;;;;;;0.00;0.00;;;17.50;99.90;;;;;;5083291;28;20061;-80
2022/09/14 09:17:29;;;;;;;0.00;0.00;;;17.60;99.90;;;;;;5089211;28;20499;-80
2022/09/14 09:20:04;;;;;;;0.00;0.00;;;17.90;99.90;;;;;;5088789;28;20032;-80
2022/09/14 09:22:37;;;;;;;0.00;0.00;;;18.00;99.90;;;;;;5086235;28;20520;-81
2022/09/14 09:25:09;;;;;;;0.00;0.00;;;18.00;99.90;;;;;;5089411;28;20042;-79
2022/09/14 09:27:37;;;;;;;0.00;0.00;;;17.90;99.90;;;;;;5082954;28;20037;-79
2022/09/14 09:30:06;;;;;;;0.00;0.00;;;17.80;99.90;;;;;;5090114;28;20028;-79
2022/09/14 09:32:35;;;;;;;0.00;0.00;;;17.60;99.90;;;;;;5097774;28;20173;-80
2022/09/14 09:35:04;;;;;;;0.00;0.00;;;17.70;99.90;;;;;;5091999;28;20479;-79
2022/09/14 09:37:36;;;;;;;0.03;0.03;;;17.90;99.90;;;;;;5103865;28;20206;-79
2022/09/14 09:40:12;;;;;;;0.00;0.00;;;17.80;99.90;;;;;;5090772;28;20407;-79
2022/09/14 09:43:04;;;;;;;0.00;0.00;;;17.80;99.90;;;;;;5090335;28;20156;-80
2022/09/14 09:45:46;;;;;;;0.00;0.00;;;17.80;99.90;;;;;;5094075;28;20063;-79
2022/09/14 09:48:15;;;;;;;0.00;0.00;;;17.90;99.90;;;;;;5084290;28;20055;-80
2022/09/14 09:50:48;;;;;;;0.00;0.00;;;18.10;99.90;;;;;;5096921;28;20127;-80
2022/09/14 09:53:16;;;;;;;0.00;0.00;;;18.20;99.90;;;;;;5094730;28;20043;-79
2022/09/14 09:55:50;;;;;;;0.00;0.00;;;18.40;99.90;;;;;;5099125;28;20491;-80
2022/09/14 09:58:26;;;;;;;0.00;0.00;;;18.40;99.90;;;;;;5083448;28;20038;-80
2022/09/14 10:00:56;;;;;;;0.10;0.10;;;18.40;99.90;;;;;;5091036;28;20040;-79
2022/09/14 10:03:32;;;;;;;0.00;0.00;;;18.10;99.90;;;;;;5081393;28;20526;-79
2022/09/14 10:06:02;;;;;;;0.00;0.00;;;18.20;99.90;;;;;;5096570;28;20423;-79
2022/09/14 10:08:33;;;;;;;0.00;0.00;;;18.20;99.90;;;;;;5092899;28;20028;-79
2022/09/14 10:11:02;;;;;;;0.00;0.00;;;18.40;99.90;;;;;;5078507;28;20036;-79
2022/09/14 10:13:34;;;;;;;0.00;0.00;;;18.40;99.90;;;;;;5081170;28;20048;-79
2022/09/14 10:16:13;;;;;;;0.00;0.00;;;18.20;99.90;;;;;;5084582;28;20514;-80
2022/09/14 10:18:45;;;;;;;0.00;0.00;;;18.30;99.90;;;;;;5082906;28;20056;-78
2022/09/14 10:21:19;;;;;;;0.00;0.00;;;18.40;99.90;;;;;;5084789;28;20044;-79
2022/09/14 10:24:00;;;;;;;0.00;0.00;;;18.50;99.90;;;;;;5079327;28;20063;-79
2022/09/14 10:26:33;;;;;;;0.00;0.00;;;18.50;99.90;;;;;;5079319;28;20051;-78
2022/09/14 10:29:28;;;;;;;0.10;0.10;;;18.50;99.90;;;;;;5079555;28;20046;-79
2022/09/14 10:31:59;;;;;;;0.00;0.00;;;19.90;99.90;;;;;;5077148;28;20051;-79
2022/09/14 10:34:27;;;;;;;0.00;0.00;;;18.40;99.90;;;;;;5083518;28;20036;-80
2022/09/14 10:37:06;;;;;;;0.00;0.00;;;18.40;99.90;;;;;;5079609;28;20584;-80
2022/09/14 10:39:40;;;;;;;0.00;0.00;;;18.40;99.90;;;;;;5081790;28;20516;-80
2022/09/14 10:42:16;;;;;;;0.00;0.00;;;18.40;99.90;;;;;;5087669;28;20160;-76
2022/09/14 10:44:55;;;;;;;0.00;0.00;;;18.40;99.90;;;;;;5087549;28;20054;-78
2022/09/14 10:47:49;;;;;;;0.00;0.00;;;18.60;99.90;;;;;;5090283;28;20492;-80
2022/09/14 10:50:34;;;;;;;0.00;0.00;;;18.70;99.90;;;;;;5086721;28;20492;-78
2022/09/14 10:53:13;;;;;;;0.00;0.00;;;18.70;99.90;;;;;;5086489;28;20060;-79
2022/09/14 10:55:44;;;;;;;0.00;0.00;;;18.80;99.90;;;;;;5082940;28;20041;-79
2022/09/14 10:58:40;;;;;;;0.00;0.00;;;18.80;99.90;;;;;;5081134;28;20066;-79
2022/09/14 11:01:20;;;;;;;0.00;0.00;;;18.80;99.90;;;;;;5079080;28;20044;-79
2022/09/14 11:03:59;;;;;;;0.00;0.00;;;18.90;99.90;;;;;;5083269;28;20573;-78
2022/09/14 11:06:39;;;;;;;0.00;0.00;;;18.70;99.90;;;;;;5077486;28;20523;-80
2022/09/14 11:09:15;;;;;;;0.00;0.00;;;18.30;99.90;;;;;;5085402;28;20551;-80
2022/09/14 11:11:52;;;;;;;0.00;0.00;;;18.40;99.90;;;;;;5082875;28;20044;-78
2022/09/14 11:14:31;;;;;;;0.00;0.00;;;18.50;99.90;;;;;;5084307;28;20066;-79
2022/09/14 11:17:19;;;;;;;0.00;0.00;;;18.40;99.90;;;;;;5079479;28;20428;-80
2022/09/14 11:19:55;;;;;;;0.00;0.00;;;18.70;99.90;;;;;;5085227;28;20447;-79
2022/09/14 11:22:34;;;;;;;0.00;0.00;;;18.80;99.90;;;;;;5083046;28;20044;-79
2022/09/14 11:25:09;;;;;;;0.00;0.00;;;18.90;99.90;;;;;;5083142;28;20040;-78
2022/09/14 11:27:39;;;;;;;0.00;0.00;;;18.90;99.90;;;;;;5082055;28;20078;-80
2022/09/14 11:30:13;;;;;;;0.00;0.00;;;19.00;99.90;;;;;;5072827;28;20040;-79
2022/09/14 11:32:46;;;;;;;0.00;0.00;;;18.80;99.90;;;;;;5075069;28;20049;-79
2022/09/14 11:35:16;;;;;;;0.00;0.00;;;18.80;99.90;;;;;;5080172;28;20411;-79
2022/09/14 11:37:48;;;;;;;0.00;0.00;;;18.80;99.90;;;;;;5088663;28;20040;-80
2022/09/14 11:40:21;;;;;;;0.00;0.00;;;18.90;99.90;;;;;;5082676;28;20395;-80
2022/09/14 11:42:54;;;;;;;0.00;0.00;;;18.90;99.90;;;;;;5078446;28;20037;-78
2022/09/14 11:45:28;;;;;;;0.00;0.00;;;18.80;99.90;;;;;;5093104;28;20032;-80
2022/09/14 11:48:07;;;;;;;0.00;0.00;;;18.90;99.90;;;;;;5101029;28;20058;-79
2022/09/14 11:51:02;;;;;;;0.00;0.00;;;19.00;99.90;;;;;;5082045;28;20064;-79
2022/09/14 11:53:31;;;;;;;0.00;0.00;;;18.90;99.90;;;;;;5084106;28;20047;-80
2022/09/14 11:55:59;;;;;;;0.00;0.00;;;18.90;99.90;;;;;;5080015;28;20049;-78
2022/09/14 11:58:30;;;;;;;0.00;0.00;;;18.90;99.90;;;;;;5078530;28;20389;-80
2022/09/14 12:01:25;;;;;;;0.00;0.00;;;18.80;99.90;;;;;;5085436;28;20087;-79
2022/09/14 12:04:06;;;;;;;0.00;0.00;;;18.70;99.90;;;;;;5078745;28;20675;-80
2022/09/14 12:07:03;;;;;;;0.00;0.00;;;18.80;99.90;;;;;;5073845;28;20036;-80
2022/09/14 12:09:43;;;;;;;0.00;0.00;;;18.90;99.90;;;;;;5079325;28;20045;-80
2022/09/14 12:12:37;;;;;;;0.00;0.00;;;18.80;99.90;;;;;;5075013;28;20047;-79
2022/09/14 12:15:18;;;;;;;0.00;0.00;;;18.80;99.90;;;;;;5079888;28;20076;-79
2022/09/14 12:17:45;;;;;;;0.00;0.00;;;18.80;99.90;;;;;;5079663;28;20051;-78
2022/09/14 12:20:29;;;;;;;0.00;0.00;;;18.80;99.90;;;;;;5081948;28;20046;-78
2022/09/14 12:23:22;;;;;;;0.00;0.00;;;18.80;99.90;;;;;;5076275;28;20044;-78
2022/09/14 12:26:34;;;;;;;0.00;0.00;;;18.60;99.90;;;;;;5092028;28;20062;-79
2022/09/14 12:29:26;;;;;;;0.00;0.00;;;18.50;99.90;;;;;;5081302;28;20051;-79
2022/09/14 12:32:00;;;;;;;0.00;0.00;;;18.40;99.90;;;;;;5081439;28;20043;-78
2022/09/14 12:34:30;;;;;;;0.00;0.00;;;18.40;99.90;;;;;;5077774;28;20041;-79
2022/09/14 12:37:08;;;;;;;0.00;0.00;;;18.40;99.90;;;;;;5079959;28;20085;-80
2022/09/14 12:39:57;;;;;;;0.00;0.00;;;18.40;99.90;;;;;;5082552;28;20125;-79
2022/09/14 12:42:28;;;;;;;0.00;0.00;;;18.40;99.90;;;;;;5086096;28;20043;-80
2022/09/14 12:44:55;;;;;;;0.00;0.00;;;18.20;99.90;;;;;;5090806;28;20111;-79
2022/09/14 12:47:49;;;;;;;0.00;0.00;;;18.30;99.90;;;;;;5081802;28;20055;-79
2022/09/14 12:50:19;;;;;;;0.00;0.00;;;18.10;99.90;;;;;;5087576;28;20093;-80
2022/09/14 12:53:12;;;;;;;0.00;0.00;;;18.20;99.90;;;;;;5084749;28;20047;-79
2022/09/14 12:55:54;;;;;;;0.00;0.00;;;18.30;99.90;;;;;;5077329;28;20048;-79
2022/09/14 12:58:58;;;;;;;0.00;0.00;;;18.50;99.90;;;;;;5081239;28;20071;-79
2022/09/14 13:01:34;;;;;;;0.00;0.00;;;18.60;99.90;;;;;;5077361;28;20032;-78
2022/09/14 13:04:02;;;;;;;0.00;0.00;;;18.60;99.90;;;;;;5075148;28;20052;-80
2022/09/14 13:06:38;;;;;;;0.00;0.00;;;18.50;99.90;;;;;;5083890;28;20067;-79
2022/09/14 13:09:17;;;;;;;0.00;0.00;;;18.10;99.90;;;;;;5085370;28;20052;-79
2022/09/14 13:11:46;;;;;;;0.00;0.00;;;18.10;99.90;;;;;;5081239;28;20048;-80
2022/09/14 13:14:16;;;;;;;0.00;0.00;;;18.20;99.90;;;;;;5076151;28;20424;-78